Time;durP1;ratioP1;P1;durP2;ratioP2;P2;SDS_P1;SDS_P2;PMS_P1;PMS_P2;Temp;Humidity;BMP_temperature;BMP_pressure;BME280_temperature;BME280_humidity;BME280_pressure;Samples;Min_cycle;Max_cycle;Signal;HPM_P1;HPM_P2
2023/06/13 00:01:48;;;;;;;4.60;3.42;;;17.70;51.00;;;;;;4959162;28;20097;-64
2023/06/13 00:04:21;;;;;;;4.20;3.70;;;17.70;51.00;;;;;;4957169;28;20049;-64
2023/06/13 00:06:50;;;;;;;4.53;3.40;;;17.60;51.10;;;;;;4956781;28;20047;-63
2023/06/13 00:09:19;;;;;;;4.75;3.60;;;17.60;51.10;;;;;;4956924;28;20521;-64
2023/06/13 00:11:46;;;;;;;4.63;4.00;;;17.60;51.00;;;;;;4955015;28;20035;-64
2023/06/13 00:14:12;;;;;;;4.28;3.50;;;17.50;51.10;;;;;;4955725;28;20031;-64
2023/06/13 00:16:38;;;;;;;4.28;3.88;;;17.50;51.10;;;;;;4955300;28;20039;-64
2023/06/13 00:19:05;;;;;;;5.22;3.42;;;17.40;51.20;;;;;;4956459;28;20073;-63
2023/06/13 00:21:32;;;;;;;4.55;3.78;;;17.40;51.40;;;;;;4956333;28;20387;-63
2023/06/13 00:23:58;;;;;;;3.75;3.25;;;17.30;51.50;;;;;;4961345;28;20041;-64
2023/06/13 00:26:23;;;;;;;4.40;3.45;;;17.20;51.60;;;;;;4960686;28;20031;-63
2023/06/13 00:28:49;;;;;;;4.35;3.30;;;17.10;51.90;;;;;;4962078;28;20043;-62
2023/06/13 00:31:16;;;;;;;4.03;3.20;;;17.00;51.90;;;;;;4961911;28;20051;-64
2023/06/13 00:33:43;;;;;;;3.88;3.00;;;16.90;52.00;;;;;;4962419;28;20259;-63
2023/06/13 00:36:09;;;;;;;9.50;3.00;;;16.90;52.10;;;;;;4961128;28;20046;-64
2023/06/13 00:38:36;;;;;;;3.17;2.88;;;16.80;52.20;;;;;;4961011;28;20034;-64
2023/06/13 00:41:02;;;;;;;4.35;3.20;;;16.80;52.30;;;;;;4961959;28;20486;-62
2023/06/13 00:43:28;;;;;;;3.42;3.03;;;16.80;52.30;;;;;;4961484;28;20057;-64
2023/06/13 00:45:55;;;;;;;4.80;3.15;;;16.80;52.30;;;;;;4963069;28;20066;-64
2023/06/13 00:48:21;;;;;;;3.05;2.75;;;16.80;52.40;;;;;;4962762;28;20166;-64
2023/06/13 00:50:47;;;;;;;3.55;2.72;;;16.90;52.40;;;;;;4962261;28;20130;-64
2023/06/13 00:53:18;;;;;;;5.22;2.90;;;16.90;52.40;;;;;;4959979;28;20192;-63
2023/06/13 00:55:45;;;;;;;4.30;3.08;;;16.90;52.30;;;;;;4963298;28;20042;-63
2023/06/13 00:58:12;;;;;;;3.30;3.00;;;16.90;52.30;;;;;;4960356;28;20061;-65
2023/06/13 01:00:39;;;;;;;3.15;2.85;;;16.90;52.40;;;;;;4961807;28;20400;-64
2023/06/13 01:03:09;;;;;;;3.30;2.97;;;16.90;52.30;;;;;;4960318;28;20494;-64
2023/06/13 01:05:34;;;;;;;34.40;3.85;;;17.00;52.60;;;;;;4962073;28;20035;-64
2023/06/13 01:08:04;;;;;;;7.25;3.10;;;17.00;52.30;;;;;;4961820;28;20513;-65
2023/06/13 01:10:32;;;;;;;3.63;2.90;;;17.00;52.40;;;;;;4960826;28;20039;-64
2023/06/13 01:13:14;;;;;;;3.92;3.20;;;17.00;52.40;;;;;;4961618;28;20030;-64
2023/06/13 01:15:52;;;;;;;3.33;2.80;;;17.00;52.80;;;;;;4961428;28;20042;-64
2023/06/13 01:18:22;;;;;;;4.38;2.78;;;17.00;52.60;;;;;;4959095;28;20032;-64
2023/06/13 01:20:51;;;;;;;2.88;2.65;;;16.90;52.50;;;;;;4963395;28;20047;-63
2023/06/13 01:23:40;;;;;;;4.05;2.80;;;16.90;52.50;;;;;;4962145;28;20062;-64
2023/06/13 01:26:21;;;;;;;6.15;2.58;;;16.90;52.90;;;;;;4961945;28;20038;-64
2023/06/13 01:28:51;;;;;;;2.88;2.55;;;16.90;52.80;;;;;;4962569;28;20046;-64
2023/06/13 01:31:19;;;;;;;3.42;2.75;;;16.80;52.70;;;;;;4961737;28;20550;-65
2023/06/13 01:33:46;;;;;;;4.20;3.08;;;16.70;52.70;;;;;;4960386;28;20038;-64
2023/06/13 01:36:12;;;;;;;3.42;3.00;;;16.70;52.80;;;;;;4959189;28;20055;-64
2023/06/13 01:38:38;;;;;;;3.33;3.03;;;16.70;53.00;;;;;;4941692;28;20046;-63
2023/06/13 01:41:04;;;;;;;4.10;2.92;;;16.60;53.00;;;;;;4958307;28;20122;-65
2023/06/13 01:43:29;;;;;;;3.75;3.08;;;16.60;53.10;;;;;;4957748;28;20130;-63
2023/06/13 01:46:19;;;;;;;5.57;3.05;;;16.50;53.20;;;;;;4954858;28;20564;-64
2023/06/13 01:48:53;;;;;;;3.97;3.25;;;16.50;53.50;;;;;;4957068;28;20034;-63
2023/06/13 01:51:24;;;;;;;6.35;3.47;;;16.40;53.40;;;;;;4957990;28;20108;-63
2023/06/13 01:53:55;;;;;;;3.70;3.25;;;16.40;53.70;;;;;;4958103;28;20031;-64
2023/06/13 01:56:27;;;;;;;4.07;3.28;;;16.30;53.80;;;;;;4958467;28;20035;-63
2023/06/13 01:58:57;;;;;;;5.47;3.40;;;16.30;54.00;;;;;;4957948;28;20038;-63
2023/06/13 02:01:28;;;;;;;4.18;3.03;;;16.20;53.90;;;;;;4959172;28;20521;-64
2023/06/13 02:03:54;;;;;;;3.75;3.30;;;16.20;53.90;;;;;;4959122;28;20309;-62
2023/06/13 02:06:20;;;;;;;5.30;3.35;;;16.10;54.00;;;;;;4957120;28;20050;-64
2023/06/13 02:08:46;;;;;;;3.85;3.30;;;16.10;54.10;;;;;;4957711;28;20035;-64
2023/06/13 02:11:12;;;;;;;3.30;2.97;;;16.10;54.20;;;;;;4958658;28;20751;-63
2023/06/13 02:13:37;;;;;;;4.38;3.42;;;16.10;54.30;;;;;;4959482;28;20110;-64
2023/06/13 02:16:03;;;;;;;3.70;3.08;;;16.10;55.00;;;;;;4956664;28;20066;-63
2023/06/13 02:18:30;;;;;;;5.13;3.30;;;16.10;54.40;;;;;;4958153;28;20131;-64
2023/06/13 02:20:56;;;;;;;3.63;3.00;;;16.00;54.40;;;;;;4957620;28;20034;-63
2023/06/13 02:23:23;;;;;;;3.80;3.15;;;16.00;54.40;;;;;;4958674;28;20034;-63
2023/06/13 02:25:49;;;;;;;3.38;3.08;;;16.10;54.50;;;;;;4956621;28;20146;-63
2023/06/13 02:28:15;;;;;;;5.28;3.28;;;16.00;54.60;;;;;;4958491;28;20051;-64
2023/06/13 02:30:40;;;;;;;5.57;3.50;;;15.90;54.70;;;;;;4957301;28;20568;-63
2023/06/13 02:33:08;;;;;;;4.05;3.17;;;15.90;54.90;;;;;;4957654;28;20046;-64
2023/06/13 02:35:33;;;;;;;3.88;3.47;;;15.70;54.90;;;;;;4957403;28;20028;-64
2023/06/13 02:37:59;;;;;;;3.60;3.17;;;15.80;55.00;;;;;;4958328;28;20569;-64
2023/06/13 02:40:25;;;;;;;3.58;3.28;;;15.80;55.00;;;;;;4956530;28;20451;-64
2023/06/13 02:42:52;;;;;;;5.70;3.53;;;15.70;55.10;;;;;;4957332;28;20039;-64
2023/06/13 02:45:18;;;;;;;3.72;3.08;;;15.70;55.30;;;;;;4958668;28;20042;-63
2023/06/13 02:47:44;;;;;;;3.53;3.10;;;15.70;55.40;;;;;;4955788;28;20410;-63
2023/06/13 02:50:10;;;;;;;3.95;3.13;;;15.60;55.40;;;;;;4956938;28;20043;-64
2023/06/13 02:52:37;;;;;;;3.42;3.13;;;15.60;55.50;;;;;;4955940;28;20411;-62
2023/06/13 02:55:03;;;;;;;4.40;3.60;;;15.60;55.60;;;;;;4957163;28;20590;-63
2023/06/13 02:57:29;;;;;;;3.97;3.05;;;15.50;55.70;;;;;;4958152;28;20129;-64
2023/06/13 02:59:54;;;;;;;3.58;3.22;;;15.50;55.90;;;;;;4956584;28;20126;-64
2023/06/13 03:02:20;;;;;;;3.85;3.47;;;15.50;56.00;;;;;;4958132;28;20507;-63
2023/06/13 03:04:47;;;;;;;4.47;3.67;;;15.40;56.70;;;;;;4956299;28;20035;-64
2023/06/13 03:07:16;;;;;;;3.95;3.65;;;15.40;56.10;;;;;;4956483;28;20526;-63
2023/06/13 03:09:42;;;;;;;4.18;3.58;;;15.30;56.20;;;;;;4958084;28;20042;-64
2023/06/13 03:12:07;;;;;;;5.68;3.70;;;15.30;56.50;;;;;;4955825;28;20042;-64
2023/06/13 03:14:33;;;;;;;5.63;3.42;;;15.30;56.60;;;;;;4957337;28;20039;-63
2023/06/13 03:16:59;;;;;;;5.45;3.60;;;15.20;56.70;;;;;;4956727;28;20071;-65
2023/06/13 03:19:26;;;;;;;6.25;3.90;;;15.20;56.90;;;;;;4957679;28;20023;-65
2023/06/13 03:21:51;;;;;;;5.50;3.88;;;15.10;57.00;;;;;;4955256;28;20077;-64
2023/06/13 03:24:17;;;;;;;4.60;3.63;;;15.10;57.20;;;;;;4957066;28;20071;-64
2023/06/13 03:26:43;;;;;;;4.78;3.75;;;15.00;57.30;;;;;;4957195;28;20044;-64
2023/06/13 03:29:09;;;;;;;4.13;3.72;;;15.00;57.30;;;;;;4957858;28;20585;-64
2023/06/13 03:31:35;;;;;;;5.43;3.65;;;14.90;57.50;;;;;;4954867;28;20090;-64
2023/06/13 03:34:00;;;;;;;4.38;3.80;;;14.90;57.60;;;;;;4956034;28;20031;-64
2023/06/13 03:36:26;;;;;;;3.80;3.42;;;14.90;57.70;;;;;;4956233;28;20035;-65
2023/06/13 03:38:52;;;;;;;5.95;3.60;;;14.90;57.80;;;;;;4954507;28;20122;-63
2023/06/13 03:41:18;;;;;;;4.30;3.90;;;14.90;58.10;;;;;;4955532;28;20121;-64
2023/06/13 03:43:43;;;;;;;3.97;3.58;;;14.80;58.10;;;;;;4955338;28;20038;-63
2023/06/13 03:46:09;;;;;;;3.58;3.28;;;14.80;58.20;;;;;;4955310;28;20126;-63
2023/06/13 03:48:34;;;;;;;4.85;3.85;;;14.70;58.30;;;;;;4955958;28;20373;-65
2023/06/13 03:51:00;;;;;;;3.72;3.42;;;14.70;58.60;;;;;;4955054;28;20039;-63
2023/06/13 03:53:26;;;;;;;5.00;3.30;;;14.70;58.70;;;;;;4954530;28;20043;-63
2023/06/13 03:55:52;;;;;;;4.93;3.38;;;14.70;58.80;;;;;;4956998;28;20031;-62
2023/06/13 03:58:18;;;;;;;6.55;3.42;;;14.70;58.90;;;;;;4954341;28;20038;-64
2023/06/13 04:00:44;;;;;;;8.13;3.58;;;14.70;58.90;;;;;;4953969;28;20031;-63
2023/06/13 04:03:10;;;;;;;5.03;3.50;;;14.70;59.00;;;;;;4955473;28;20412;-64
2023/06/13 04:05:36;;;;;;;5.07;3.70;;;14.60;59.00;;;;;;4955397;28;20118;-64
2023/06/13 04:08:02;;;;;;;3.85;3.55;;;14.60;59.10;;;;;;4955715;28;20512;-62
2023/06/13 04:10:28;;;;;;;3.80;3.38;;;14.70;59.20;;;;;;4954226;28;20047;-62
2023/06/13 04:12:53;;;;;;;5.28;3.50;;;14.70;59.50;;;;;;4956176;28;20073;-64
2023/06/13 04:15:20;;;;;;;3.70;3.40;;;14.60;59.30;;;;;;4956276;28;20030;-63
2023/06/13 04:17:46;;;;;;;4.57;3.58;;;14.60;59.50;;;;;;4954814;28;20062;-63
2023/06/13 04:20:14;;;;;;;6.65;3.60;;;14.70;59.70;;;;;;4957684;28;20125;-63
2023/06/13 04:22:42;;;;;;;5.45;3.50;;;14.60;59.60;;;;;;4955384;28;20042;-62
2023/06/13 04:25:07;;;;;;;3.70;3.40;;;14.60;59.80;;;;;;4956702;28;20606;-64
2023/06/13 04:27:34;;;;;;;5.78;3.65;;;14.60;59.80;;;;;;4953279;28;20133;-63
2023/06/13 04:30:00;;;;;;;5.85;3.70;;;14.60;59.90;;;;;;4955927;28;21901;-63
2023/06/13 04:32:28;;;;;;;4.15;3.75;;;14.60;60.00;;;;;;4956878;28;20039;-63
2023/06/13 04:34:55;;;;;;;6.18;3.53;;;14.70;60.50;;;;;;4957971;28;20439;-63
2023/06/13 04:37:25;;;;;;;5.90;3.53;;;14.60;60.30;;;;;;4958161;28;20066;-63
2023/06/13 04:39:52;;;;;;;5.80;3.50;;;14.60;60.30;;;;;;4958050;28;20081;-63
2023/06/13 04:42:26;;;;;;;4.68;3.85;;;14.60;60.60;;;;;;4956656;28;20035;-63
2023/06/13 04:44:53;;;;;;;3.80;3.50;;;14.60;60.70;;;;;;4957720;28;20058;-64
2023/06/13 04:47:19;;;;;;;5.20;3.70;;;14.70;60.90;;;;;;4957395;28;20043;-64
2023/06/13 04:49:46;;;;;;;4.85;3.53;;;14.60;60.80;;;;;;4957201;28;20545;-63
2023/06/13 04:52:15;;;;;;;4.95;3.60;;;14.60;61.00;;;;;;4956634;28;20039;-63
2023/06/13 04:54:41;;;;;;;4.90;3.58;;;14.60;61.40;;;;;;4956788;28;20126;-63
2023/06/13 04:57:06;;;;;;;3.80;3.50;;;14.60;61.20;;;;;;4956377;28;20118;-63
2023/06/13 04:59:32;;;;;;;4.57;3.83;;;14.60;61.30;;;;;;4957283;28;20117;-63
2023/06/13 05:01:57;;;;;;;4.95;4.00;;;14.60;61.60;;;;;;4957951;28;20407;-63
2023/06/13 05:04:23;;;;;;;3.60;3.30;;;14.70;61.70;;;;;;4956911;28;20313;-64
2023/06/13 05:06:49;;;;;;;6.22;3.65;;;14.70;61.90;;;;;;4957240;28;20085;-64
2023/06/13 05:09:16;;;;;;;5.60;3.58;;;14.70;61.80;;;;;;4959433;28;20101;-64
2023/06/13 05:11:42;;;;;;;3.75;3.45;;;14.80;61.60;;;;;;4962752;28;20047;-63
2023/06/13 05:14:08;;;;;;;4.93;3.33;;;14.90;61.80;;;;;;4960809;28;20474;-62
2023/06/13 05:16:34;;;;;;;5.50;3.15;;;14.90;61.60;;;;;;4960150;28;20265;-63
2023/06/13 05:19:00;;;;;;;4.80;3.42;;;15.00;61.60;;;;;;4960619;28;20082;-63
2023/06/13 05:21:28;;;;;;;3.20;2.90;;;15.00;61.70;;;;;;4959650;28;20028;-62
2023/06/13 05:23:54;;;;;;;4.60;3.00;;;15.10;61.30;;;;;;4960824;28;20038;-62
2023/06/13 05:26:20;;;;;;;7.50;3.30;;;15.20;60.80;;;;;;4960781;28;20043;-64
2023/06/13 05:28:46;;;;;;;3.30;3.00;;;15.30;60.60;;;;;;4960947;28;20043;-63
2023/06/13 05:31:12;;;;;;;4.00;2.92;;;15.40;60.50;;;;;;4960760;28;20033;-64
2023/06/13 05:33:38;;;;;;;3.72;3.03;;;15.50;60.30;;;;;;4959992;28;20130;-63
2023/06/13 05:36:04;;;;;;;3.63;3.30;;;15.50;60.10;;;;;;4961343;28;20454;-64
2023/06/13 05:38:29;;;;;;;3.58;3.03;;;15.60;59.70;;;;;;4960575;28;20043;-62
2023/06/13 05:40:55;;;;;;;4.72;2.80;;;15.70;59.60;;;;;;4961354;28;20412;-64
2023/06/13 05:43:21;;;;;;;4.85;2.92;;;15.80;59.30;;;;;;4961122;28;20070;-64
2023/06/13 05:45:48;;;;;;;3.15;2.80;;;15.90;59.10;;;;;;4961341;28;20564;-64
2023/06/13 05:48:13;;;;;;;3.40;2.58;;;16.00;59.00;;;;;;4961251;28;20789;-63
2023/06/13 05:50:39;;;;;;;4.15;2.85;;;16.10;58.80;;;;;;4960566;28;20104;-63
2023/06/13 05:53:05;;;;;;;3.03;2.72;;;16.20;58.70;;;;;;4960580;28;20533;-62
2023/06/13 05:55:30;;;;;;;2.97;2.50;;;16.20;58.30;;;;;;4960026;28;20032;-62
2023/06/13 05:57:56;;;;;;;2.80;2.50;;;16.30;58.20;;;;;;4960491;28;20325;-63
2023/06/13 06:00:22;;;;;;;3.72;2.78;;;16.40;58.00;;;;;;4959926;28;20027;-64
2023/06/13 06:02:48;;;;;;;3.67;2.47;;;16.50;57.80;;;;;;4958652;28;20049;-63
2023/06/13 06:05:14;;;;;;;2.47;2.28;;;16.60;57.60;;;;;;4959392;28;20514;-63
2023/06/13 06:07:43;;;;;;;3.67;2.35;;;16.70;57.40;;;;;;4960535;28;20042;-64
2023/06/13 06:10:10;;;;;;;2.60;2.33;;;16.70;57.10;;;;;;4960574;28;20031;-62
2023/06/13 06:12:36;;;;;;;6.70;2.33;;;16.80;57.00;;;;;;4957449;28;20092;-63
2023/06/13 06:15:02;;;;;;;3.70;2.50;;;16.90;56.90;;;;;;4958775;28;20126;-64
2023/06/13 06:17:28;;;;;;;4.68;2.17;;;16.90;56.50;;;;;;4959287;28;20130;-63
2023/06/13 06:19:54;;;;;;;2.28;2.08;;;17.00;56.10;;;;;;4959172;28;20038;-63
2023/06/13 06:22:20;;;;;;;3.78;2.40;;;17.10;56.00;;;;;;4959860;28;20107;-64
2023/06/13 06:24:45;;;;;;;4.15;2.30;;;17.20;55.60;;;;;;4958475;28;20057;-64
2023/06/13 06:27:12;;;;;;;3.35;2.40;;;17.30;55.30;;;;;;4960101;28;20039;-63
2023/06/13 06:29:44;;;;;;;2.40;2.10;;;17.40;55.10;;;;;;4959102;28;20055;-64
2023/06/13 06:32:10;;;;;;;2.28;1.95;;;17.40;55.00;;;;;;4960236;28;20097;-64
2023/06/13 06:34:36;;;;;;;5.72;2.22;;;17.50;54.90;;;;;;4959651;28;20114;-64
2023/06/13 06:37:05;;;;;;;2.53;2.25;;;17.60;54.70;;;;;;4959266;28;20529;-64
2023/06/13 06:39:31;;;;;;;4.57;2.10;;;17.60;54.40;;;;;;4960128;28;20427;-62
2023/06/13 06:41:57;;;;;;;8.48;2.10;;;17.80;54.40;;;;;;4958584;28;20043;-63
2023/06/13 06:44:22;;;;;;;2.30;2.10;;;17.80;54.10;;;;;;4959473;28;20386;-64
2023/06/13 06:46:48;;;;;;;2.75;2.03;;;17.90;54.00;;;;;;4959444;28;20055;-64
2023/06/13 06:49:16;;;;;;;2.63;2.08;;;18.00;53.60;;;;;;4959334;28;20723;-64
2023/06/13 06:51:42;;;;;;;3.45;2.17;;;18.00;53.40;;;;;;4958666;28;20514;-64
2023/06/13 06:54:07;;;;;;;3.65;2.13;;;18.10;53.30;;;;;;4958338;28;20043;-64
2023/06/13 06:56:33;;;;;;;2.35;1.70;;;18.20;52.80;;;;;;4958738;28;20040;-64
2023/06/13 06:58:58;;;;;;;1.98;1.80;;;18.20;52.80;;;;;;4958635;28;20126;-64
2023/06/13 07:01:24;;;;;;;4.65;2.00;;;18.30;52.70;;;;;;4958654;28;20035;-64
2023/06/13 07:03:50;;;;;;;5.38;1.95;;;18.40;52.50;;;;;;4958056;28;20499;-64
2023/06/13 07:06:15;;;;;;;2.10;1.90;;;18.50;52.40;;;;;;4959268;28;20521;-64
2023/06/13 07:08:41;;;;;;;5.32;1.88;;;18.60;52.30;;;;;;4958918;28;20611;-64
2023/06/13 07:11:07;;;;;;;3.80;1.90;;;18.70;51.90;;;;;;4960661;28;20154;-63
2023/06/13 07:13:32;;;;;;;3.58;1.88;;;18.70;51.60;;;;;;4958853;28;20042;-63
2023/06/13 07:15:59;;;;;;;2.45;1.77;;;18.80;51.40;;;;;;4941518;28;20043;-64
2023/06/13 07:18:25;;;;;;;4.50;1.90;;;18.90;51.30;;;;;;4959314;28;20043;-62
2023/06/13 07:20:51;;;;;;;2.60;1.90;;;18.90;51.10;;;;;;4958725;28;20035;-64
2023/06/13 07:23:17;;;;;;;3.40;1.88;;;19.00;50.90;;;;;;4959501;28;20034;-64
2023/06/13 07:25:43;;;;;;;3.53;2.00;;;19.10;50.80;;;;;;4958855;28;20042;-63
2023/06/13 07:28:09;;;;;;;3.17;1.80;;;19.20;50.50;;;;;;4958811;28;20039;-64
2023/06/13 07:30:35;;;;;;;4.95;1.70;;;19.20;50.00;;;;;;4957643;28;20046;-64
2023/06/13 07:33:00;;;;;;;6.95;2.10;;;19.30;49.50;;;;;;4957680;28;20027;-64
2023/06/13 07:35:26;;;;;;;3.80;1.92;;;19.40;49.30;;;;;;4958734;28;20034;-64
2023/06/13 07:37:53;;;;;;;7.82;2.08;;;19.50;49.20;;;;;;4958362;28;20039;-64
2023/06/13 07:40:23;;;;;;;3.13;1.90;;;19.50;48.80;;;;;;4958032;28;20031;-65
2023/06/13 07:42:49;;;;;;;4.45;2.05;;;19.60;48.50;;;;;;4958859;28;20525;-63
2023/06/13 07:45:14;;;;;;;5.43;1.63;;;19.70;48.70;;;;;;4957973;28;20558;-64
2023/06/13 07:47:40;;;;;;;5.15;1.90;;;19.70;48.40;;;;;;4958368;28;20589;-64
2023/06/13 07:50:07;;;;;;;4.68;1.80;;;19.80;48.10;;;;;;4958794;28;20129;-63
2023/06/13 07:52:32;;;;;;;9.23;2.10;;;19.90;47.90;;;;;;4957637;28;20049;-64
2023/06/13 07:54:58;;;;;;;3.92;2.03;;;20.00;47.70;;;;;;4957863;28;20114;-63
2023/06/13 07:57:23;;;;;;;3.53;1.90;;;20.10;47.80;;;;;;4957482;28;20533;-63
2023/06/13 07:59:49;;;;;;;3.00;1.80;;;20.20;47.60;;;;;;4958860;28;20039;-64
2023/06/13 08:02:15;;;;;;;5.75;1.98;;;20.30;47.00;;;;;;4954259;28;20088;-63
2023/06/13 08:04:40;;;;;;;1.95;1.83;;;20.40;47.00;;;;;;4960020;28;20364;-64
2023/06/13 08:07:06;;;;;;;6.10;1.88;;;20.50;46.80;;;;;;4958734;28;20043;-64
2023/06/13 08:09:32;;;;;;;15.77;1.80;;;20.50;46.70;;;;;;4942428;28;20071;-64
2023/06/13 08:11:58;;;;;;;4.43;2.00;;;20.60;46.40;;;;;;4960336;28;20469;-64
2023/06/13 08:14:24;;;;;;;9.43;2.00;;;20.70;46.40;;;;;;4958826;28;20046;-63
2023/06/13 08:16:49;;;;;;;5.15;2.00;;;20.80;46.30;;;;;;4959011;28;20038;-64
2023/06/13 08:19:15;;;;;;;9.45;2.05;;;20.90;46.10;;;;;;4959461;28;20127;-63
2023/06/13 08:21:41;;;;;;;4.72;1.98;;;21.10;45.90;;;;;;4959252;28;20109;-63
2023/06/13 08:24:06;;;;;;;7.38;1.90;;;21.20;45.60;;;;;;4958409;28;20041;-64
2023/06/13 08:26:32;;;;;;;9.35;2.50;;;21.30;45.50;;;;;;4959203;28;20038;-64
2023/06/13 08:29:01;;;;;;;5.20;2.00;;;21.40;45.00;;;;;;4958878;28;20086;-64
2023/06/13 08:31:27;;;;;;;8.20;1.83;;;21.50;44.80;;;;;;4959227;28;20031;-63
2023/06/13 08:33:56;;;;;;;6.32;1.85;;;21.60;44.40;;;;;;4959545;28;20039;-62
2023/06/13 08:36:22;;;;;;;3.70;1.83;;;21.70;43.90;;;;;;4958506;28;20057;-64
2023/06/13 08:38:48;;;;;;;2.20;2.00;;;21.80;44.00;;;;;;4957837;28;20506;-63
2023/06/13 08:41:15;;;;;;;3.75;1.85;;;21.80;43.50;;;;;;4957975;28;20094;-64
2023/06/13 08:43:42;;;;;;;8.20;1.80;;;21.90;42.90;;;;;;4959295;28;20038;-64
2023/06/13 08:46:07;;;;;;;7.07;2.00;;;22.00;43.20;;;;;;4962995;28;20047;-63
2023/06/13 08:48:33;;;;;;;3.35;2.00;;;22.00;43.20;;;;;;4962956;28;20098;-64
2023/06/13 08:51:05;;;;;;;5.22;1.88;;;22.10;42.00;;;;;;4962287;28;20562;-64
2023/06/13 08:53:42;;;;;;;2.42;1.85;;;22.20;42.00;;;;;;4962240;28;20066;-64
2023/06/13 08:56:08;;;;;;;4.80;1.75;;;22.30;41.70;;;;;;4963405;28;20530;-64
2023/06/13 08:58:37;;;;;;;3.65;1.92;;;22.40;42.20;;;;;;4963175;28;20325;-65
2023/06/13 09:01:04;;;;;;;3.33;1.83;;;22.50;41.70;;;;;;4961448;28;20046;-64
2023/06/13 09:03:30;;;;;;;2.58;1.70;;;22.50;41.30;;;;;;4961674;28;20046;-64
2023/06/13 09:05:57;;;;;;;2.42;1.80;;;22.60;41.00;;;;;;4961881;28;20031;-64
2023/06/13 09:08:24;;;;;;;6.10;2.10;;;22.70;40.70;;;;;;4962368;28;20019;-64
2023/06/13 09:10:51;;;;;;;2.28;1.70;;;22.80;40.40;;;;;;4960198;28;20035;-64
2023/06/13 09:13:18;;;;;;;2.13;1.80;;;22.80;40.40;;;;;;4961757;28;20037;-64
2023/06/13 09:15:45;;;;;;;109.18;6.43;;;22.90;40.10;;;;;;4961866;28;20038;-63
2023/06/13 09:18:11;;;;;;;2.97;1.92;;;23.00;40.20;;;;;;4961025;28;20027;-64
2023/06/13 09:20:37;;;;;;;5.35;1.70;;;23.10;39.40;;;;;;4961589;28;20059;-63
2023/06/13 09:23:03;;;;;;;15.50;2.17;;;23.20;39.50;;;;;;4961882;28;20032;-62
2023/06/13 09:25:31;;;;;;;2.58;1.95;;;23.20;39.30;;;;;;4961562;28;20632;-63
2023/06/13 09:27:57;;;;;;;3.53;1.80;;;23.30;39.00;;;;;;4960958;28;20098;-64
2023/06/13 09:30:22;;;;;;;1.95;1.80;;;23.40;39.00;;;;;;4961406;28;20042;-64
2023/06/13 09:32:53;;;;;;;3.47;2.10;;;23.50;38.40;;;;;;4961133;28;20038;-63
2023/06/13 09:35:19;;;;;;;5.38;2.65;;;23.50;38.00;;;;;;4962314;28;20093;-64
2023/06/13 09:37:45;;;;;;;4.40;2.00;;;23.60;38.00;;;;;;4961584;28;20437;-64
2023/06/13 09:40:12;;;;;;;4.68;2.05;;;23.70;37.90;;;;;;4961320;28;20130;-64
2023/06/13 09:42:38;;;;;;;2.05;1.85;;;23.80;37.50;;;;;;4960646;28;20100;-64
2023/06/13 09:45:08;;;;;;;5.38;2.10;;;23.80;36.80;;;;;;4961706;28;20458;-64
2023/06/13 09:47:34;;;;;;;2.22;1.80;;;23.90;36.40;;;;;;4961210;28;20115;-64
2023/06/13 09:50:01;;;;;;;2.20;1.67;;;23.90;36.60;;;;;;4962899;28;20031;-64
2023/06/13 09:52:27;;;;;;;3.67;1.90;;;24.00;35.40;;;;;;4961381;28;20039;-63
2023/06/13 09:54:54;;;;;;;3.45;1.67;;;24.00;35.50;;;;;;4961458;28;20122;-63
2023/06/13 09:57:21;;;;;;;4.25;1.92;;;24.00;35.40;;;;;;4961685;28;20078;-63
2023/06/13 09:59:47;;;;;;;2.10;1.90;;;24.10;34.90;;;;;;4961818;28;20502;-64
2023/06/13 10:02:19;;;;;;;2.78;1.77;;;24.10;34.90;;;;;;4960623;28;20035;-63
2023/06/13 10:04:45;;;;;;;4.28;2.20;;;24.20;34.70;;;;;;4960463;28;20039;-63
2023/06/13 10:07:11;;;;;;;4.60;1.90;;;24.30;34.50;;;;;;4961898;28;20035;-64
2023/06/13 10:09:38;;;;;;;5.05;1.98;;;24.40;34.70;;;;;;4961404;28;20118;-64
2023/06/13 10:12:08;;;;;;;2.15;1.70;;;24.40;34.10;;;;;;4959755;28;20129;-64
2023/06/13 10:14:38;;;;;;;5.28;2.30;;;24.50;33.40;;;;;;4960802;28;20051;-64
2023/06/13 10:17:08;;;;;;;5.13;2.15;;;24.60;32.10;;;;;;4960856;28;20050;-64
2023/06/13 10:19:36;;;;;;;2.17;1.60;;;24.70;32.50;;;;;;4960981;28;20036;-64
2023/06/13 10:22:04;;;;;;;2.03;1.83;;;24.70;33.00;;;;;;4961001;28;20031;-63
2023/06/13 10:24:29;;;;;;;2.92;1.88;;;24.70;32.60;;;;;;4960104;28;20043;-64
2023/06/13 10:26:58;;;;;;;3.13;2.00;;;24.80;32.50;;;;;;4961707;28;20031;-61
2023/06/13 10:29:53;;;;;;;4.97;1.70;;;24.80;31.00;;;;;;4960262;28;20117;-64
2023/06/13 10:32:31;;;;;;;2.67;1.88;;;24.90;30.00;;;;;;4960273;28;20035;-64
2023/06/13 10:35:33;;;;;;;2.00;1.80;;;24.90;31.00;;;;;;4960961;28;20038;-63
2023/06/13 10:38:08;;;;;;;3.88;1.98;;;25.00;30.80;;;;;;4960802;28;20035;-64
2023/06/13 10:40:59;;;;;;;2.08;1.80;;;25.00;29.90;;;;;;4960695;28;20042;-64
2023/06/13 10:43:35;;;;;;;2.53;1.67;;;25.10;30.20;;;;;;4949231;28;20031;-65
2023/06/13 10:46:07;;;;;;;4.57;1.75;;;25.10;30.00;;;;;;4960622;28;20034;-64
2023/06/13 10:48:49;;;;;;;2.42;2.00;;;25.10;30.00;;;;;;4960055;28;20049;-64
2023/06/13 10:51:29;;;;;;;2.63;1.75;;;25.20;30.00;;;;;;4960351;28;20530;-64
2023/06/13 10:54:09;;;;;;;1.80;1.63;;;25.30;30.00;;;;;;4960709;28;20154;-63
2023/06/13 10:56:39;;;;;;;3.28;1.80;;;25.40;30.10;;;;;;4959083;28;20070;-64
2023/06/13 10:59:16;;;;;;;3.20;2.20;;;25.40;30.40;;;;;;4961370;28;20093;-64
2023/06/13 11:01:43;;;;;;;2.70;1.90;;;25.40;29.60;;;;;;4960897;28;20046;-64
2023/06/13 11:04:12;;;;;;;2.55;1.77;;;25.50;29.90;;;;;;4960430;28;20114;-64
2023/06/13 11:06:40;;;;;;;2.28;1.80;;;25.50;30.00;;;;;;4960769;28;20078;-64
2023/06/13 11:09:24;;;;;;;4.63;1.73;;;25.60;30.00;;;;;;4960937;28;20030;-64
2023/06/13 11:11:54;;;;;;;2.28;1.80;;;25.60;29.10;;;;;;4959139;28;20043;-63
2023/06/13 11:14:27;;;;;;;4.57;2.08;;;25.70;29.60;;;;;;4961271;28;20035;-64
2023/06/13 11:16:53;;;;;;;2.10;1.88;;;25.80;29.20;;;;;;4960665;28;20038;-64
2023/06/13 11:19:23;;;;;;;4.47;2.00;;;25.80;29.10;;;;;;4960705;28;20097;-64
2023/06/13 11:21:51;;;;;;;3.22;2.00;;;25.80;28.40;;;;;;4960968;28;20065;-65
2023/06/13 11:24:18;;;;;;;4.38;1.80;;;25.90;28.70;;;;;;4960512;28;20506;-64
2023/06/13 11:26:45;;;;;;;2.80;1.90;;;25.90;29.10;;;;;;4959404;28;20038;-64
2023/06/13 11:29:12;;;;;;;2.20;1.95;;;26.00;29.50;;;;;;4960082;28;20081;-64
2023/06/13 11:31:39;;;;;;;2.78;2.10;;;26.00;29.30;;;;;;4959436;28;20035;-64
2023/06/13 11:34:14;;;;;;;4.85;1.85;;;26.00;29.50;;;;;;4958921;28;20506;-64
2023/06/13 11:36:42;;;;;;;3.92;1.83;;;26.10;29.30;;;;;;4959409;28;20057;-65
2023/06/13 11:39:13;;;;;;;3.85;2.15;;;26.10;29.10;;;;;;4960740;28;20142;-64
2023/06/13 11:41:39;;;;;;;2.10;1.88;;;26.10;28.50;;;;;;4959789;28;20035;-64
2023/06/13 11:44:05;;;;;;;2.08;1.70;;;26.10;29.20;;;;;;4959511;28;20035;-64
2023/06/13 11:46:31;;;;;;;3.80;1.77;;;26.10;29.40;;;;;;4959889;28;20034;-64
2023/06/13 11:48:57;;;;;;;2.55;1.80;;;26.20;29.20;;;;;;4959078;28;20367;-62
2023/06/13 11:51:30;;;;;;;3.55;2.05;;;26.20;29.20;;;;;;4959682;28;20328;-64
2023/06/13 11:54:01;;;;;;;2.90;1.92;;;26.20;29.20;;;;;;4958278;28;20394;-64
2023/06/13 11:56:28;;;;;;;2.75;2.22;;;26.30;29.10;;;;;;4958945;28;20141;-63
2023/06/13 11:58:55;;;;;;;2.85;1.80;;;26.40;29.50;;;;;;4958864;28;20065;-64
2023/06/13 12:01:24;;;;;;;4.50;1.70;;;26.30;29.40;;;;;;4959025;28;20410;-64
2023/06/13 12:03:50;;;;;;;3.15;2.22;;;26.40;29.50;;;;;;4958528;28;20039;-64
2023/06/13 12:06:17;;;;;;;3.75;1.83;;;26.40;29.10;;;;;;4959512;28;20039;-65
2023/06/13 12:08:47;;;;;;;5.70;1.90;;;26.40;29.00;;;;;;4958964;28;20117;-64
2023/06/13 12:11:17;;;;;;;5.38;2.00;;;26.40;28.90;;;;;;4956730;28;20043;-63
2023/06/13 12:13:57;;;;;;;1.85;1.75;;;26.40;29.00;;;;;;4947489;28;20042;-64
2023/06/13 12:16:24;;;;;;;3.67;2.00;;;26.40;27.70;;;;;;4959239;28;20058;-64
2023/06/13 12:18:56;;;;;;;3.10;1.90;;;26.30;28.80;;;;;;4957443;28;20047;-64
2023/06/13 12:21:30;;;;;;;2.03;1.80;;;26.30;28.90;;;;;;4958984;28;20077;-64
2023/06/13 12:23:57;;;;;;;2.28;2.05;;;26.30;29.20;;;;;;4959201;28;20494;-63
2023/06/13 12:26:25;;;;;;;2.00;1.80;;;26.40;29.20;;;;;;4956683;28;20034;-64
2023/06/13 12:28:52;;;;;;;3.45;1.83;;;26.40;29.10;;;;;;4958197;28;20415;-64
2023/06/13 12:31:32;;;;;;;3.97;1.90;;;26.40;28.50;;;;;;4959298;28;20580;-64
2023/06/13 12:34:18;;;;;;;3.50;1.70;;;26.50;28.60;;;;;;4958403;28;20042;-64
2023/06/13 12:36:46;;;;;;;2.30;1.60;;;26.50;28.40;;;;;;4957988;28;20122;-65
2023/06/13 12:39:16;;;;;;;2.45;2.00;;;26.40;28.80;;;;;;4959302;28;20086;-64
2023/06/13 12:41:49;;;;;;;4.20;1.90;;;26.50;28.70;;;;;;4958956;28;20066;-65
2023/06/13 12:44:16;;;;;;;1.83;1.73;;;26.50;28.90;;;;;;4958237;28;20062;-63
2023/06/13 12:46:42;;;;;;;3.05;1.67;;;26.60;28.30;;;;;;4958307;28;20039;-64
2023/06/13 12:49:13;;;;;;;5.72;2.05;;;26.60;28.30;;;;;;4959139;28;20050;-64